Lizton, Indiana
Current Conditions -  °F | °C
As of 3:53 AM on Wednesday 22 Oct 2014 (Local Time) from KEYE Reporting Station
Clear Clear  
Wind Chill: 39°   Ceiling: Unl
Heat Index: 42°   Visibility: 10mi
Dew Point: 35°   Wind: 5mph
Humidity: 76%   Direction: 20°NNE
Pressure: 30.23"   Gusts: NA
Location:  39.89°N, 86.54°W
Report Text: KEYE 220753Z AUTO 02004KT 10SM CLR 06/02 A3023 RMK AO2 SLP240 T00560017
Loading
Personal Weather Stations






























Interactive Weather Map
Tropical Storm Tracking
New forecast layout! Learn more

10-Day Weather Forecast

Advertisements
Track Severe Weather on mobile